
Distance (Route):
Temperature : -17.2°C
Humidity : 0%
Pressure : 0hPa| Receiver | Frames | First received | Last received |
|---|---|---|---|
| KE7DJD | 182 | 2026-09-04 00:05:35 | 2026-09-04 01:09:48 |
| Receiver | Date | Latitude | Longitude | Direction | Speed | Altitude | Climb | Temperature | Humidity | Pressure | Voltage | Killtimer | Uptime | BKT | XDATA |
|---|---|---|---|---|---|---|---|---|---|---|---|---|---|---|---|
| KE7DJD | 2026-09-04 01:09:48 | 41.53087 | -114.83243 | 46° | 95km/h | 7872m | -6.3m/s | -17.2°C | 0% | 0hPa | 0V | 00:00:00 | 00:00:00 | 00:00:00 | |
| KE7DJD | 2026-09-04 01:09:16 | 41.52529 | -114.84012 | 48° | 97km/h | 8080m | -6.3m/s | -19.0°C | 0% | 0hPa | 0V | 00:00:00 | 00:00:00 | 00:00:00 | |
| KE7DJD | 2026-09-04 01:08:50 | 41.52105 | -114.84627 | 48° | 97km/h | 8244m | -6.2m/s | -19.6°C | 0% | 0hPa | 0V | 00:00:00 | 00:00:00 | 00:00:00 | |
| KE7DJD | 2026-09-04 01:08:27 | 41.51740 | -114.85177 | 51° | 99km/h | 8381m | -6.4m/s | -20.4°C | 0% | 0hPa | 0V | 00:00:00 | 00:00:00 | 00:00:00 | |
| KE7DJD | 2026-09-04 01:08:07 | 41.51413 | -114.85728 | 55° | 97km/h | 8514m | -6.5m/s | -21.2°C | 0% | 0hPa | 0V | 00:00:00 | 00:00:00 | 00:00:00 | |
| KE7DJD | 2026-09-04 01:07:45 | 41.51119 | -114.86275 | 56° | 93km/h | 8651m | -6.7m/s | -22.0°C | 0% | 0hPa | 0V | 00:00:00 | 00:00:00 | 00:00:00 | |
| KE7DJD | 2026-09-04 01:07:23 | 41.50825 | -114.86866 | 58° | 99km/h | 8795m | -6.6m/s | -23.3°C | 0% | 0hPa | 0V | 00:00:00 | 00:00:00 | 00:00:00 | |
| KE7DJD | 2026-09-04 01:07:03 | 41.50552 | -114.87451 | 58° | 99km/h | 8934m | -6.9m/s | -24.6°C | 0% | 0hPa | 0V | 00:00:00 | 00:00:00 | 00:00:00 | |
| KE7DJD | 2026-09-04 01:06:42 | 41.50261 | -114.88007 | 57° | 99km/h | 9068m | -6.5m/s | -25.8°C | 0% | 0hPa | 0V | 00:00:00 | 00:00:00 | 00:00:00 | |
| KE7DJD | 2026-09-04 01:06:22 | 41.49986 | -114.88575 | 60° | 99km/h | 9199m | -6.6m/s | -27.0°C | 0% | 0hPa | 0V | 00:00:00 | 00:00:00 | 00:00:00 | |
| KE7DJD | 2026-09-04 01:05:41 | 41.49512 | -114.89724 | 63° | 91km/h | 9476m | -6.6m/s | -29.5°C | 0% | 0hPa | 0V | 00:00:00 | 00:00:00 | 00:00:00 | |
| KE7DJD | 2026-09-04 01:05:21 | 41.49280 | -114.90275 | 61° | 89km/h | 9621m | -6.9m/s | -30.6°C | 0% | 0hPa | 0V | 00:00:00 | 00:00:00 | 00:00:00 | |
| KE7DJD | 2026-09-04 01:05:00 | 41.49046 | -114.90827 | 62° | 88km/h | 9765m | -6.7m/s | -31.4°C | 0% | 0hPa | 0V | 00:00:00 | 00:00:00 | 00:00:00 | |
| KE7DJD | 2026-09-04 01:04:40 | 41.48821 | -114.91336 | 60° | 86km/h | 9902m | -6.8m/s | -32.6°C | 0% | 0hPa | 0V | 00:00:00 | 00:00:00 | 00:00:00 | |
| KE7DJD | 2026-09-04 01:04:19 | 41.48593 | -114.91818 | 58° | 84km/h | 10042m | -6.8m/s | -33.9°C | 0% | 0hPa | 0V | 00:00:00 | 00:00:00 | 00:00:00 | |
| KE7DJD | 2026-09-04 01:03:59 | 41.48339 | -114.92302 | 54° | 84km/h | 10189m | -7.0m/s | -35.1°C | 0% | 0hPa | 0V | 00:00:00 | 00:00:00 | 00:00:00 | |
| KE7DJD | 2026-09-04 01:03:37 | 41.48071 | -114.92774 | 53° | 82km/h | 10337m | -6.9m/s | -35.8°C | 0% | 0hPa | 0V | 00:00:00 | 00:00:00 | 00:00:00 | |
| KE7DJD | 2026-09-04 01:03:17 | 41.47800 | -114.93234 | 53° | 82km/h | 10487m | -7.1m/s | -37.1°C | 0% | 0hPa | 0V | 00:00:00 | 00:00:00 | 00:00:00 | |
| KE7DJD | 2026-09-04 01:02:57 | 41.47541 | -114.93686 | 54° | 84km/h | 10632m | -7.3m/s | -38.3°C | 0% | 0hPa | 0V | 00:00:00 | 00:00:00 | 00:00:00 | |
| KE7DJD | 2026-09-04 01:02:36 | 41.47278 | -114.94141 | 52° | 86km/h | 10779m | -7.3m/s | -39.7°C | 0% | 0hPa | 0V | 00:00:00 | 00:00:00 | 00:00:00 | |
| KE7DJD | 2026-09-04 01:02:16 | 41.46980 | -114.94614 | 51° | 88km/h | 10934m | -7.4m/s | -41.1°C | 0% | 0hPa | 0V | 00:00:00 | 00:00:00 | 00:00:00 | |
| KE7DJD | 2026-09-04 01:01:55 | 41.46701 | -114.95090 | 55° | 91km/h | 11086m | -7.7m/s | -42.3°C | 0% | 0hPa | 0V | 00:00:00 | 00:00:00 | 00:00:00 | |
| KE7DJD | 2026-09-04 01:01:35 | 41.46429 | -114.95656 | 61° | 97km/h | 11253m | -7.8m/s | -43.4°C | 0% | 0hPa | 0V | 00:00:00 | 00:00:00 | 00:00:00 | |
| KE7DJD | 2026-09-04 01:01:14 | 41.46190 | -114.96227 | 63° | 99km/h | 11412m | -8.1m/s | -44.9°C | 0% | 0hPa | 0V | 00:00:00 | 00:00:00 | 00:00:00 | |
| KE7DJD | 2026-09-04 01:00:54 | 41.45952 | -114.96837 | 63° | 97km/h | 11585m | -8.2m/s | -45.5°C | 0% | 0hPa | 0V | 00:00:00 | 00:00:00 | 00:00:00 | |
| KE7DJD | 2026-09-04 01:00:32 | 41.45672 | -114.97456 | 56° | 113km/h | 11762m | -8.3m/s | -45.3°C | 0% | 0hPa | 0V | 00:00:00 | 00:00:00 | 00:00:00 | |
| KE7DJD | 2026-09-04 01:00:11 | 41.45335 | -114.98147 | 59° | 124km/h | 11944m | -9.0m/s | -45.3°C | 0% | 0hPa | 0V | 00:00:00 | 00:00:00 | 00:00:00 | |
| KE7DJD | 2026-09-04 00:59:51 | 41.44958 | -114.98916 | 58° | 130km/h | 12130m | -8.5m/s | -45.5°C | 0% | 0hPa | 0V | 00:00:00 | 00:00:00 | 00:00:00 | |
| KE7DJD | 2026-09-04 00:59:30 | 41.44596 | -114.99677 | 58° | 122km/h | 12314m | -8.4m/s | -46.7°C | 0% | 0hPa | 0V | 00:00:00 | 00:00:00 | 00:00:00 | |
| KE7DJD | 2026-09-04 00:59:09 | 41.44253 | -115.00358 | 56° | 122km/h | 12487m | -8.7m/s | -48.1°C | 0% | 0hPa | 0V | 00:00:00 | 00:00:00 | 00:00:00 | |
| KE7DJD | 2026-09-04 00:58:49 | 41.43888 | -115.01063 | 56° | 117km/h | 12671m | -8.2m/s | -48.0°C | 0% | 0hPa | 0V | 00:00:00 | 00:00:00 | 00:00:00 | |
| KE7DJD | 2026-09-04 00:58:28 | 41.43497 | -115.01696 | 51° | 126km/h | 12843m | -8.1m/s | -47.7°C | 0% | 0hPa | 0V | 00:00:00 | 00:00:00 | 00:00:00 | |
| KE7DJD | 2026-09-04 00:58:06 | 41.43073 | -115.02425 | 57° | 120km/h | 13030m | -8.0m/s | -47.4°C | 0% | 0hPa | 0V | 00:00:00 | 00:00:00 | 00:00:00 | |
| KE7DJD | 2026-09-04 00:57:46 | 41.42748 | -115.03159 | 63° | 119km/h | 13197m | -7.9m/s | -46.2°C | 0% | 0hPa | 0V | 00:00:00 | 00:00:00 | 00:00:00 | |
| KE7DJD | 2026-09-04 00:57:24 | 41.42447 | -115.03876 | 59° | 117km/h | 13356m | -7.3m/s | -44.8°C | 0% | 0hPa | 0V | 00:00:00 | 00:00:00 | 00:00:00 | |
| KE7DJD | 2026-09-04 00:57:04 | 41.42091 | -115.04559 | 54° | 130km/h | 13505m | -7.3m/s | -45.2°C | 0% | 0hPa | 0V | 00:00:00 | 00:00:00 | 00:00:00 | |
| KE7DJD | 2026-09-04 00:56:44 | 41.41725 | -115.05258 | 60° | 110km/h | 13666m | -8.0m/s | -43.9°C | 0% | 0hPa | 0V | 00:00:00 | 00:00:00 | 00:00:00 | |
| KE7DJD | 2026-09-04 00:56:23 | 41.41484 | -115.05910 | 70° | 106km/h | 13836m | -9.2m/s | -43.8°C | 0% | 0hPa | 0V | 00:00:00 | 00:00:00 | 00:00:00 | |
| KE7DJD | 2026-09-04 00:56:03 | 41.41292 | -115.06445 | 59° | 73km/h | 14040m | -11.8m/s | -43.6°C | 0% | 0hPa | 0V | 00:00:00 | 00:00:00 | 00:00:00 | |
| KE7DJD | 2026-09-04 00:55:42 | 41.41095 | -115.06816 | 46° | 57km/h | 14259m | -10.6m/s | -45.1°C | 0% | 0hPa | 0V | 00:00:00 | 00:00:00 | 00:00:00 | |
| KE7DJD | 2026-09-04 00:55:21 | 41.40891 | -115.07060 | 36° | 57km/h | 14459m | -10.7m/s | -46.5°C | 0% | 0hPa | 0V | 00:00:00 | 00:00:00 | 00:00:00 | |
| KE7DJD | 2026-09-04 00:55:01 | 41.40632 | -115.07230 | 21° | 58km/h | 14674m | -10.3m/s | -48.0°C | 0% | 0hPa | 0V | 00:00:00 | 00:00:00 | 00:00:00 | |
| KE7DJD | 2026-09-04 00:54:40 | 41.40338 | -115.07369 | 19° | 66km/h | 14881m | -10.3m/s | -49.6°C | 0% | 0hPa | 0V | 00:00:00 | 00:00:00 | 00:00:00 | |
| KE7DJD | 2026-09-04 00:54:18 | 41.39997 | -115.07543 | 27° | 62km/h | 15112m | -10.5m/s | -51.2°C | 0% | 0hPa | 0V | 00:00:00 | 00:00:00 | 00:00:00 | |
| KE7DJD | 2026-09-04 00:53:58 | 41.39717 | -115.07792 | 43° | 64km/h | 15336m | -10.8m/s | -53.1°C | 0% | 0hPa | 0V | 00:00:00 | 00:00:00 | 00:00:00 | |
| KE7DJD | 2026-09-04 00:53:37 | 41.39463 | -115.08152 | 55° | 77km/h | 15561m | -10.7m/s | -54.8°C | 0% | 0hPa | 0V | 00:00:00 | 00:00:00 | 00:00:00 | |
| KE7DJD | 2026-09-04 00:53:16 | 41.39240 | -115.08630 | 63° | 80km/h | 15779m | -11.0m/s | -54.7°C | 0% | 0hPa | 0V | 00:00:00 | 00:00:00 | 00:00:00 | |
| KE7DJD | 2026-09-04 00:52:56 | 41.39074 | -115.09062 | 61° | 60km/h | 16014m | -11.1m/s | -55.2°C | 0% | 0hPa | 0V | 00:00:00 | 00:00:00 | 00:00:00 | |
| KE7DJD | 2026-09-04 00:52:35 | 41.38907 | -115.09343 | 46° | 51km/h | 16241m | -11.2m/s | -54.6°C | 0% | 0hPa | 0V | 00:00:00 | 00:00:00 | 00:00:00 | |
| KE7DJD | 2026-09-04 00:52:15 | 41.38630 | -115.09596 | 35° | 77km/h | 16479m | -11.3m/s | -53.7°C | 0% | 0hPa | 0V | 00:00:00 | 00:00:00 | 00:00:00 | |
| KE7DJD | 2026-09-04 00:51:54 | 41.38328 | -115.09929 | 44° | 78km/h | 16714m | -12.0m/s | -54.7°C | 0% | 0hPa | 0V | 00:00:00 | 00:00:00 | 00:00:00 | |
| KE7DJD | 2026-09-04 00:51:34 | 41.38157 | -115.10299 | 62° | 55km/h | 16970m | -12.3m/s | -51.5°C | 0% | 0hPa | 0V | 00:00:00 | 00:00:00 | 00:00:00 | |
| KE7DJD | 2026-09-04 00:51:14 | 41.37981 | -115.10634 | 56° | 69km/h | 17219m | -12.6m/s | -51.5°C | 0% | 0hPa | 0V | 00:00:00 | 00:00:00 | 00:00:00 | |
| KE7DJD | 2026-09-04 00:50:53 | 41.37730 | -115.10984 | 41° | 73km/h | 17490m | -12.6m/s | -50.2°C | 0% | 0hPa | 0V | 00:00:00 | 00:00:00 | 00:00:00 | |
| KE7DJD | 2026-09-04 00:50:32 | 41.37487 | -115.11333 | 57° | 55km/h | 17752m | -12.9m/s | -48.3°C | 0% | 0hPa | 0V | 00:00:00 | 00:00:00 | 00:00:00 | |
| KE7DJD | 2026-09-04 00:50:12 | 41.37370 | -115.11524 | 27° | 24km/h | 18037m | -14.0m/s | -46.8°C | 0% | 0hPa | 0V | 00:00:00 | 00:00:00 | 00:00:00 | |
| KE7DJD | 2026-09-04 00:49:52 | 41.37250 | -115.11543 | 349° | 27km/h | 18322m | -14.3m/s | -48.4°C | 0% | 0hPa | 0V | 00:00:00 | 00:00:00 | 00:00:00 | |
| KE7DJD | 2026-09-04 00:49:31 | 41.37089 | -115.11515 | 352° | 37km/h | 18629m | -14.3m/s | -48.9°C | 0% | 0hPa | 0V | 00:00:00 | 00:00:00 | 00:00:00 | |
| KE7DJD | 2026-09-04 00:49:11 | 41.36887 | -115.11504 | 17° | 42km/h | 18926m | -14.7m/s | -50.0°C | 0% | 0hPa | 0V | 00:00:00 | 00:00:00 | 00:00:00 | |
| KE7DJD | 2026-09-04 00:48:50 | 41.36747 | -115.11685 | 56° | 27km/h | 19243m | -15.1m/s | -49.1°C | 0% | 0hPa | 0V | 00:00:00 | 00:00:00 | 00:00:00 | |
| KE7DJD | 2026-09-04 00:48:29 | 41.36682 | -115.11789 | 44° | 11km/h | 19568m | -15.6m/s | -50.6°C | 0% | 0hPa | 0V | 00:00:00 | 00:00:00 | 00:00:00 | |
| KE7DJD | 2026-09-04 00:48:08 | 41.36577 | -115.11759 | 350° | 27km/h | 19887m | -16.0m/s | -48.5°C | 0% | 0hPa | 0V | 00:00:00 | 00:00:00 | 00:00:00 | |
| KE7DJD | 2026-09-04 00:47:48 | 41.36456 | -115.11771 | 30° | 9km/h | 20234m | -16.5m/s | -48.8°C | 0% | 0hPa | 0V | 00:00:00 | 00:00:00 | 00:00:00 | |
| KE7DJD | 2026-09-04 00:47:27 | 41.36462 | -115.11755 | 247° | 11km/h | 20573m | -17.4m/s | -48.7°C | 0% | 0hPa | 0V | 00:00:00 | 00:00:00 | 00:00:00 | |
| KE7DJD | 2026-09-04 00:47:07 | 41.36431 | -115.11670 | 4° | 7km/h | 20942m | -17.7m/s | -49.3°C | 0% | 0hPa | 0V | 00:00:00 | 00:00:00 | 00:00:00 | |
| KE7DJD | 2026-09-04 00:46:46 | 41.36423 | -115.11691 | 0° | 0km/h | 21327m | -18.6m/s | -48.2°C | 0% | 0hPa | 0V | 00:00:00 | 00:00:00 | 00:00:00 | |
| KE7DJD | 2026-09-04 00:46:26 | 41.36436 | -115.11676 | 253° | 13km/h | 21701m | -18.8m/s | -47.6°C | 0% | 0hPa | 0V | 00:00:00 | 00:00:00 | 00:00:00 | |
| KE7DJD | 2026-09-04 00:46:05 | 41.36427 | -115.11629 | 319° | 5km/h | 22088m | -19.8m/s | -47.1°C | 0% | 0hPa | 0V | 00:00:00 | 00:00:00 | 00:00:00 | |
| KE7DJD | 2026-09-04 00:45:45 | 41.36398 | -115.11568 | 324° | 7km/h | 22507m | -20.2m/s | -48.1°C | 0% | 0hPa | 0V | 00:00:00 | 00:00:00 | 00:00:00 | |
| KE7DJD | 2026-09-04 00:45:24 | 41.36378 | -115.11528 | 259° | 13km/h | 22921m | -21.4m/s | -47.4°C | 0% | 0hPa | 0V | 00:00:00 | 00:00:00 | 00:00:00 | |
| KE7DJD | 2026-09-04 00:45:04 | 41.36395 | -115.11443 | 281° | 13km/h | 23376m | -21.9m/s | -47.9°C | 0% | 0hPa | 0V | 00:00:00 | 00:00:00 | 00:00:00 | |
| KE7DJD | 2026-09-04 00:44:23 | 41.36406 | -115.11234 | 245° | 29km/h | 24321m | -24.2m/s | -45.2°C | 0% | 0hPa | 0V | 00:00:00 | 00:00:00 | 00:00:00 | |
| KE7DJD | 2026-09-04 00:44:02 | 41.36418 | -115.11022 | 270° | 22km/h | 24834m | -25.0m/s | -44.2°C | 0% | 0hPa | 0V | 00:00:00 | 00:00:00 | 00:00:00 | |
| KE7DJD | 2026-09-04 00:43:41 | 41.36401 | -115.10813 | 292° | 26km/h | 25369m | -26.0m/s | -43.2°C | 0% | 0hPa | 0V | 00:00:00 | 00:00:00 | 00:00:00 | |
| KE7DJD | 2026-09-04 00:43:20 | 41.36362 | -115.10677 | 274° | 22km/h | 25929m | -27.4m/s | -42.3°C | 0% | 0hPa | 0V | 00:00:00 | 00:00:00 | 00:00:00 | |
| KE7DJD | 2026-09-04 00:42:59 | 41.36336 | -115.10563 | 250° | 20km/h | 26513m | -28.2m/s | -41.2°C | 0% | 0hPa | 0V | 00:00:00 | 00:00:00 | 00:00:00 | |
| KE7DJD | 2026-09-04 00:42:38 | 41.36269 | -115.10446 | 341° | 31km/h | 27120m | -30.2m/s | -41.3°C | 0% | 0hPa | 0V | 00:00:00 | 00:00:00 | 00:00:00 | |
| KE7DJD | 2026-09-04 00:42:17 | 41.36195 | -115.10465 | 56° | 18km/h | 27725m | -30.4m/s | -39.7°C | 0% | 0hPa | 0V | 00:00:00 | 00:00:00 | 00:00:00 | |
| KE7DJD | 2026-09-04 00:41:57 | 41.36220 | -115.10497 | 126° | 22km/h | 28393m | -33.2m/s | -40.0°C | 0% | 0hPa | 0V | 00:00:00 | 00:00:00 | 00:00:00 | |
| KE7DJD | 2026-09-04 00:41:35 | 41.36330 | -115.10539 | 192° | 20km/h | 29135m | -34.6m/s | -37.2°C | 0% | 0hPa | 0V | 00:00:00 | 00:00:00 | 00:00:00 | |
| KE7DJD | 2026-09-04 00:41:14 | 41.36384 | -115.10512 | 166° | 15km/h | 29889m | -37.2m/s | -37.8°C | 0% | 0hPa | 0V | 00:00:00 | 00:00:00 | 00:00:00 | |
| KE7DJD | 2026-09-04 00:40:52 | 41.36485 | -115.10464 | 215° | 31km/h | 30698m | -40.2m/s | -37.2°C | 0% | 0hPa | 0V | 00:00:00 | 00:00:00 | 00:00:00 | |
| KE7DJD | 2026-09-04 00:40:25 | 41.36579 | -115.10303 | 254° | 18km/h | 31718m | -27.1m/s | -34.5°C | 0% | 0hPa | 0V | 00:00:00 | 00:00:00 | 00:00:00 | |
| KE7DJD | 2026-09-04 00:40:03 | 41.36548 | -115.10197 | 304° | 15km/h | 32306m | -38.2m/s | -33.5°C | 0% | 0hPa | 0V | 00:00:00 | 00:00:00 | 00:00:00 | |
| KE7DJD | 2026-09-04 00:39:41 | 41.36509 | -115.10048 | 279° | 58km/h | 33071m | -30.1m/s | -33.1°C | 0% | 0hPa | 0V | 00:00:00 | 00:00:00 | 00:00:00 | |
| KE7DJD | 2026-09-04 00:39:20 | 41.36439 | -115.09970 | 345° | 13km/h | 33787m | -58.1m/s | -30.7°C | 0% | 0hPa | 0V | 00:00:00 | 00:00:00 | 00:00:00 | |
| KE7DJD | 2026-09-04 00:38:40 | 41.36424 | -115.09782 | 150° | 9km/h | 33870m | 6.3m/s | -31.4°C | 0% | 0hPa | 0V | 00:00:00 | 00:00:00 | 00:00:00 | |
| KE7DJD | 2026-09-04 00:38:19 | 41.36378 | -115.09755 | 101° | 20km/h | 33758m | 1.9m/s | -31.9°C | 0% | 0hPa | 0V | 00:00:00 | 00:00:00 | 00:00:00 | |
| KE7DJD | 2026-09-04 00:37:58 | 41.36319 | -115.09709 | 109° | 24km/h | 33646m | 3.6m/s | -32.2°C | 0% | 0hPa | 0V | 00:00:00 | 00:00:00 | 00:00:00 | |
| KE7DJD | 2026-09-04 00:37:38 | 41.36292 | -115.09645 | 276° | 11km/h | 33526m | 6.8m/s | -32.5°C | 0% | 0hPa | 0V | 00:00:00 | 00:00:00 | 00:00:00 | |
| KE7DJD | 2026-09-04 00:37:17 | 41.36256 | -115.09563 | 277° | 35km/h | 33401m | 4.0m/s | -32.8°C | 0% | 0hPa | 0V | 00:00:00 | 00:00:00 | 00:00:00 | |
| KE7DJD | 2026-09-04 00:36:56 | 41.36215 | -115.09469 | 284° | 33km/h | 33286m | 6.0m/s | -33.0°C | 0% | 0hPa | 0V | 00:00:00 | 00:00:00 | 00:00:00 | |
| KE7DJD | 2026-09-04 00:36:36 | 41.36152 | -115.09347 | 16° | 31km/h | 33162m | 6.2m/s | -33.2°C | 0% | 0hPa | 0V | 00:00:00 | 00:00:00 | 00:00:00 | |
| KE7DJD | 2026-09-04 00:36:15 | 41.36106 | -115.09230 | 354° | 22km/h | 33046m | 6.2m/s | -32.9°C | 0% | 0hPa | 0V | 00:00:00 | 00:00:00 | 00:00:00 | |
| KE7DJD | 2026-09-04 00:35:55 | 41.36060 | -115.09147 | 268° | 37km/h | 32924m | 7.6m/s | -32.9°C | 0% | 0hPa | 0V | 00:00:00 | 00:00:00 | 00:00:00 | |
| KE7DJD | 2026-09-04 00:35:34 | 41.36035 | -115.09101 | 272° | 22km/h | 32809m | 5.8m/s | -32.7°C | 0% | 0hPa | 0V | 00:00:00 | 00:00:00 | 00:00:00 | |
| KE7DJD | 2026-09-04 00:35:14 | 41.35997 | -115.09023 | 353° | 18km/h | 32688m | 6.9m/s | -32.4°C | 0% | 0hPa | 0V | 00:00:00 | 00:00:00 | 00:00:00 | |
| KE7DJD | 2026-09-04 00:34:54 | 41.35968 | -115.08960 | 326° | 18km/h | 32573m | 3.8m/s | -33.2°C | 0% | 0hPa | 0V | 00:00:00 | 00:00:00 | 00:00:00 | |
| KE7DJD | 2026-09-04 00:34:33 | 41.35928 | -115.08863 | 324° | 27km/h | 32452m | 6.6m/s | -33.3°C | 0% | 0hPa | 0V | 00:00:00 | 00:00:00 | 00:00:00 | |
| KE7DJD | 2026-09-04 00:34:13 | 41.35917 | -115.08810 | 298° | 33km/h | 32333m | 7.6m/s | -33.5°C | 0% | 0hPa | 0V | 00:00:00 | 00:00:00 | 00:00:00 | |
| KE7DJD | 2026-09-04 00:33:50 | 41.35885 | -115.08764 | 353° | 16km/h | 32202m | 4.0m/s | -33.4°C | 0% | 0hPa | 0V | 00:00:00 | 00:00:00 | 00:00:00 | |
| KE7DJD | 2026-09-04 00:33:29 | 41.35842 | -115.08700 | 299° | 4km/h | 32077m | 4.0m/s | -33.9°C | 0% | 0hPa | 0V | 00:00:00 | 00:00:00 | 00:00:00 | |
| KE7DJD | 2026-09-04 00:33:07 | 41.35807 | -115.08533 | 264° | 42km/h | 31940m | 3.1m/s | -33.5°C | 0% | 0hPa | 0V | 00:00:00 | 00:00:00 | 00:00:00 | |
| KE7DJD | 2026-09-04 00:32:47 | 41.35825 | -115.08398 | 251° | 33km/h | 31821m | 6.1m/s | -33.0°C | 0% | 0hPa | 0V | 00:00:00 | 00:00:00 | 00:00:00 | |
| KE7DJD | 2026-09-04 00:32:26 | 41.35880 | -115.08298 | 157° | 16km/h | 31691m | 6.2m/s | -34.4°C | 0% | 0hPa | 0V | 00:00:00 | 00:00:00 | 00:00:00 | |
| KE7DJD | 2026-09-04 00:32:05 | 41.35961 | -115.08265 | 284° | 7km/h | 31574m | 7.2m/s | -35.1°C | 0% | 0hPa | 0V | 00:00:00 | 00:00:00 | 00:00:00 | |
| KE7DJD | 2026-09-04 00:31:45 | 41.36005 | -115.08214 | 275° | 33km/h | 31452m | 7.8m/s | -35.7°C | 0% | 0hPa | 0V | 00:00:00 | 00:00:00 | 00:00:00 | |
| KE7DJD | 2026-09-04 00:31:24 | 41.36068 | -115.08123 | 234° | 11km/h | 31340m | 5.7m/s | -36.7°C | 0% | 0hPa | 0V | 00:00:00 | 00:00:00 | 00:00:00 | |
| KE7DJD | 2026-09-04 00:31:02 | 41.36094 | -115.07992 | 253° | 18km/h | 31212m | 4.6m/s | -36.9°C | 0% | 0hPa | 0V | 00:00:00 | 00:00:00 | 00:00:00 | |
| KE7DJD | 2026-09-04 00:30:36 | 41.36158 | -115.07802 | 233° | 15km/h | 31057m | 6.0m/s | -37.2°C | 0% | 0hPa | 0V | 00:00:00 | 00:00:00 | 00:00:00 | |
| KE7DJD | 2026-09-04 00:30:16 | 41.36246 | -115.07675 | 241° | 24km/h | 30937m | 8.2m/s | -36.9°C | 0% | 0hPa | 0V | 00:00:00 | 00:00:00 | 00:00:00 | |
| KE7DJD | 2026-09-04 00:29:55 | 41.36344 | -115.07594 | 216° | 7km/h | 30812m | 5.5m/s | -36.6°C | 0% | 0hPa | 0V | 00:00:00 | 00:00:00 | 00:00:00 | |
| KE7DJD | 2026-09-04 00:29:35 | 41.36445 | -115.07507 | 204° | 27km/h | 30693m | 5.0m/s | -36.6°C | 0% | 0hPa | 0V | 00:00:00 | 00:00:00 | 00:00:00 | |
| KE7DJD | 2026-09-04 00:29:14 | 41.36574 | -115.07490 | 158° | 53km/h | 30566m | 4.2m/s | -37.1°C | 0% | 0hPa | 0V | 00:00:00 | 00:00:00 | 00:00:00 | |
| KE7DJD | 2026-09-04 00:28:52 | 41.36716 | -115.07523 | 198° | 37km/h | 30439m | 4.4m/s | -36.6°C | 0% | 0hPa | 0V | 00:00:00 | 00:00:00 | 00:00:00 | |
| KE7DJD | 2026-09-04 00:28:32 | 41.36792 | -115.07556 | 173° | 46km/h | 30312m | 7.0m/s | -35.9°C | 0% | 0hPa | 0V | 00:00:00 | 00:00:00 | 00:00:00 | |
| KE7DJD | 2026-09-04 00:28:12 | 41.36869 | -115.07510 | 183° | 22km/h | 30184m | 5.7m/s | -35.1°C | 0% | 0hPa | 0V | 00:00:00 | 00:00:00 | 00:00:00 | |
| KE7DJD | 2026-09-04 00:27:51 | 41.36968 | -115.07433 | 0° | 0km/h | 30060m | 6.5m/s | -35.6°C | 0% | 0hPa | 0V | 00:00:00 | 00:00:00 | 00:00:00 | |
| KE7DJD | 2026-09-04 00:27:31 | 41.37018 | -115.07398 | 149° | 29km/h | 29932m | 5.5m/s | -36.3°C | 0% | 0hPa | 0V | 00:00:00 | 00:00:00 | 00:00:00 | |
| KE7DJD | 2026-09-04 00:27:11 | 41.37054 | -115.07405 | 61° | 5km/h | 29812m | 4.5m/s | -36.8°C | 0% | 0hPa | 0V | 00:00:00 | 00:00:00 | 00:00:00 | |
| KE7DJD | 2026-09-04 00:26:50 | 41.37067 | -115.07445 | 354° | 13km/h | 29687m | 7.2m/s | -37.1°C | 0% | 0hPa | 0V | 00:00:00 | 00:00:00 | 00:00:00 | |
| KE7DJD | 2026-09-04 00:26:29 | 41.37056 | -115.07434 | 220° | 18km/h | 29567m | 7.7m/s | -36.6°C | 0% | 0hPa | 0V | 00:00:00 | 00:00:00 | 00:00:00 | |
| KE7DJD | 2026-09-04 00:26:09 | 41.37092 | -115.07330 | 174° | 18km/h | 29442m | 6.3m/s | -36.7°C | 0% | 0hPa | 0V | 00:00:00 | 00:00:00 | 00:00:00 | |
| KE7DJD | 2026-09-04 00:25:49 | 41.37184 | -115.07236 | 212° | 29km/h | 29326m | 7.1m/s | -36.7°C | 0% | 0hPa | 0V | 00:00:00 | 00:00:00 | 00:00:00 | |
| KE7DJD | 2026-09-04 00:25:28 | 41.37290 | -115.07171 | 188° | 26km/h | 29200m | 5.5m/s | -36.6°C | 0% | 0hPa | 0V | 00:00:00 | 00:00:00 | 00:00:00 | |
| KE7DJD | 2026-09-04 00:25:07 | 41.37418 | -115.07167 | 197° | 33km/h | 29082m | 5.1m/s | -36.4°C | 0% | 0hPa | 0V | 00:00:00 | 00:00:00 | 00:00:00 | |
| KE7DJD | 2026-09-04 00:24:47 | 41.37594 | -115.07210 | 135° | 35km/h | 28955m | 5.7m/s | -36.8°C | 0% | 0hPa | 0V | 00:00:00 | 00:00:00 | 00:00:00 | |
| KE7DJD | 2026-09-04 00:24:26 | 41.37702 | -115.07256 | 188° | 22km/h | 28834m | 5.5m/s | -37.5°C | 0% | 0hPa | 0V | 00:00:00 | 00:00:00 | 00:00:00 | |
| KE7DJD | 2026-09-04 00:24:06 | 41.37787 | -115.07319 | 174° | 26km/h | 28701m | 8.0m/s | -38.0°C | 0% | 0hPa | 0V | 00:00:00 | 00:00:00 | 00:00:00 | |
| KE7DJD | 2026-09-04 00:23:45 | 41.37868 | -115.07320 | 148° | 49km/h | 28572m | 9.0m/s | -38.4°C | 0% | 0hPa | 0V | 00:00:00 | 00:00:00 | 00:00:00 | |
| KE7DJD | 2026-09-04 00:23:23 | 41.37939 | -115.07379 | 159° | 20km/h | 28441m | 5.8m/s | -39.1°C | 0% | 0hPa | 0V | 00:00:00 | 00:00:00 | 00:00:00 | |
| KE7DJD | 2026-09-04 00:23:03 | 41.37971 | -115.07442 | 0° | 0km/h | 28313m | 4.0m/s | -39.4°C | 0% | 0hPa | 0V | 00:00:00 | 00:00:00 | 00:00:00 | |
| KE7DJD | 2026-09-04 00:22:42 | 41.37975 | -115.07492 | 284° | 15km/h | 28185m | 7.4m/s | -39.7°C | 0% | 0hPa | 0V | 00:00:00 | 00:00:00 | 00:00:00 | |
| KE7DJD | 2026-09-04 00:22:20 | 41.37958 | -115.07475 | 342° | 9km/h | 28061m | 2.7m/s | -39.5°C | 0% | 0hPa | 0V | 00:00:00 | 00:00:00 | 00:00:00 | |
| KE7DJD | 2026-09-04 00:22:00 | 41.37993 | -115.07425 | 6° | 7km/h | 27943m | 8.6m/s | -39.5°C | 0% | 0hPa | 0V | 00:00:00 | 00:00:00 | 00:00:00 | |
| KE7DJD | 2026-09-04 00:21:40 | 41.37977 | -115.07453 | 19° | 13km/h | 27826m | 6.4m/s | -39.3°C | 0% | 0hPa | 0V | 00:00:00 | 00:00:00 | 00:00:00 | |
| KE7DJD | 2026-09-04 00:21:20 | 41.37925 | -115.07517 | 41° | 29km/h | 27711m | 5.5m/s | -39.8°C | 0% | 0hPa | 0V | 00:00:00 | 00:00:00 | 00:00:00 | |
| KE7DJD | 2026-09-04 00:20:59 | 41.37841 | -115.07517 | 21° | 4km/h | 27592m | 4.4m/s | -40.2°C | 0% | 0hPa | 0V | 00:00:00 | 00:00:00 | 00:00:00 | |
| KE7DJD | 2026-09-04 00:20:39 | 41.37758 | -115.07500 | 295° | 24km/h | 27478m | 4.7m/s | -40.7°C | 0% | 0hPa | 0V | 00:00:00 | 00:00:00 | 00:00:00 | |
| KE7DJD | 2026-09-04 00:20:18 | 41.37667 | -115.07480 | 282° | 20km/h | 27357m | 5.4m/s | -41.5°C | 0% | 0hPa | 0V | 00:00:00 | 00:00:00 | 00:00:00 | |
| KE7DJD | 2026-09-04 00:19:58 | 41.37525 | -115.07413 | 282° | 42km/h | 27247m | 4.2m/s | -42.4°C | 0% | 0hPa | 0V | 00:00:00 | 00:00:00 | 00:00:00 | |
| KE7DJD | 2026-09-04 00:19:37 | 41.37412 | -115.07284 | 287° | 13km/h | 27125m | 4.2m/s | -42.0°C | 0% | 0hPa | 0V | 00:00:00 | 00:00:00 | 00:00:00 | |
| KE7DJD | 2026-09-04 00:19:16 | 41.37343 | -115.07135 | 309° | 29km/h | 27006m | 6.3m/s | -42.4°C | 0% | 0hPa | 0V | 00:00:00 | 00:00:00 | 00:00:00 | |
| KE7DJD | 2026-09-04 00:18:56 | 41.37246 | -115.06990 | 337° | 27km/h | 26875m | 4.7m/s | -42.2°C | 0% | 0hPa | 0V | 00:00:00 | 00:00:00 | 00:00:00 | |
| KE7DJD | 2026-09-04 00:18:35 | 41.37208 | -115.06840 | 285° | 7km/h | 26750m | 4.5m/s | -41.9°C | 0% | 0hPa | 0V | 00:00:00 | 00:00:00 | 00:00:00 | |
| KE7DJD | 2026-09-04 00:18:15 | 41.37210 | -115.06710 | 246° | 26km/h | 26620m | 3.4m/s | -42.0°C | 0% | 0hPa | 0V | 00:00:00 | 00:00:00 | 00:00:00 | |
| KE7DJD | 2026-09-04 00:17:54 | 41.37229 | -115.06634 | 297° | 29km/h | 26493m | 6.2m/s | -41.7°C | 0% | 0hPa | 0V | 00:00:00 | 00:00:00 | 00:00:00 | |
| KE7DJD | 2026-09-04 00:17:34 | 41.37182 | -115.06532 | 296° | 26km/h | 26372m | 6.0m/s | -41.2°C | 0% | 0hPa | 0V | 00:00:00 | 00:00:00 | 00:00:00 | |
| KE7DJD | 2026-09-04 00:17:13 | 41.37089 | -115.06395 | 301° | 31km/h | 26246m | 3.3m/s | -41.4°C | 0% | 0hPa | 0V | 00:00:00 | 00:00:00 | 00:00:00 | |
| KE7DJD | 2026-09-04 00:16:52 | 41.37001 | -115.06250 | 282° | 22km/h | 26131m | 6.7m/s | -42.0°C | 0% | 0hPa | 0V | 00:00:00 | 00:00:00 | 00:00:00 | |
| KE7DJD | 2026-09-04 00:16:32 | 41.36973 | -115.06114 | 277° | 5km/h | 26009m | 7.7m/s | -42.5°C | 0% | 0hPa | 0V | 00:00:00 | 00:00:00 | 00:00:00 | |
| KE7DJD | 2026-09-04 00:16:11 | 41.36902 | -115.06019 | 323° | 26km/h | 25889m | 7.4m/s | -43.0°C | 0% | 0hPa | 0V | 00:00:00 | 00:00:00 | 00:00:00 | |
| KE7DJD | 2026-09-04 00:15:51 | 41.36847 | -115.05874 | 314° | 33km/h | 25773m | 5.1m/s | -43.2°C | 0% | 0hPa | 0V | 00:00:00 | 00:00:00 | 00:00:00 | |
| KE7DJD | 2026-09-04 00:15:30 | 41.36852 | -115.05757 | 273° | 18km/h | 25665m | 3.2m/s | -43.6°C | 0% | 0hPa | 0V | 00:00:00 | 00:00:00 | 00:00:00 | |
| KE7DJD | 2026-09-04 00:15:11 | 41.36817 | -115.05649 | 271° | 37km/h | 25550m | 4.7m/s | -43.8°C | 0% | 0hPa | 0V | 00:00:00 | 00:00:00 | 00:00:00 | |
| KE7DJD | 2026-09-04 00:14:49 | 41.36745 | -115.05488 | 300° | 22km/h | 25438m | 5.4m/s | -44.4°C | 0% | 0hPa | 0V | 00:00:00 | 00:00:00 | 00:00:00 | |
| KE7DJD | 2026-09-04 00:14:29 | 41.36703 | -115.05267 | 288° | 42km/h | 25319m | 2.6m/s | -45.0°C | 0% | 0hPa | 0V | 00:00:00 | 00:00:00 | 00:00:00 | |
| KE7DJD | 2026-09-04 00:14:08 | 41.36715 | -115.05054 | 263° | 35km/h | 25204m | 4.9m/s | -44.9°C | 0% | 0hPa | 0V | 00:00:00 | 00:00:00 | 00:00:00 | |
| KE7DJD | 2026-09-04 00:13:47 | 41.36753 | -115.04879 | 251° | 15km/h | 25081m | 4.6m/s | -44.8°C | 0% | 0hPa | 0V | 00:00:00 | 00:00:00 | 00:00:00 | |
| KE7DJD | 2026-09-04 00:13:27 | 41.36766 | -115.04748 | 280° | 29km/h | 24966m | 6.7m/s | -45.1°C | 0% | 0hPa | 0V | 00:00:00 | 00:00:00 | 00:00:00 | |
| KE7DJD | 2026-09-04 00:13:07 | 41.36753 | -115.04562 | 273° | 37km/h | 24844m | 6.3m/s | -45.0°C | 0% | 0hPa | 0V | 00:00:00 | 00:00:00 | 00:00:00 | |
| KE7DJD | 2026-09-04 00:12:46 | 41.36739 | -115.04325 | 273° | 29km/h | 24716m | 5.6m/s | -44.7°C | 0% | 0hPa | 0V | 00:00:00 | 00:00:00 | 00:00:00 | |
| KE7DJD | 2026-09-04 00:12:26 | 41.36756 | -115.04095 | 263° | 38km/h | 24596m | 6.9m/s | -44.5°C | 0% | 0hPa | 0V | 00:00:00 | 00:00:00 | 00:00:00 | |
| KE7DJD | 2026-09-04 00:12:06 | 41.36779 | -115.03836 | 254° | 29km/h | 24479m | 6.8m/s | -44.7°C | 0% | 0hPa | 0V | 00:00:00 | 00:00:00 | 00:00:00 | |
| KE7DJD | 2026-09-04 00:11:45 | 41.36834 | -115.03594 | 253° | 29km/h | 24360m | 6.6m/s | -44.6°C | 0% | 0hPa | 0V | 00:00:00 | 00:00:00 | 00:00:00 | |
| KE7DJD | 2026-09-04 00:11:23 | 41.36902 | -115.03445 | 266° | 20km/h | 24235m | 6.1m/s | -44.7°C | 0% | 0hPa | 0V | 00:00:00 | 00:00:00 | 00:00:00 | |
| KE7DJD | 2026-09-04 00:11:03 | 41.36970 | -115.03374 | 212° | 18km/h | 24124m | 5.5m/s | -44.7°C | 0% | 0hPa | 0V | 00:00:00 | 00:00:00 | 00:00:00 | |
| KE7DJD | 2026-09-04 00:10:43 | 41.37038 | -115.03319 | 213° | 20km/h | 24008m | 4.3m/s | -45.0°C | 0% | 0hPa | 0V | 00:00:00 | 00:00:00 | 00:00:00 | |
| KE7DJD | 2026-09-04 00:10:22 | 41.37062 | -115.03278 | 102° | 5km/h | 23899m | 3.4m/s | -45.6°C | 0% | 0hPa | 0V | 00:00:00 | 00:00:00 | 00:00:00 | |
| KE7DJD | 2026-09-04 00:10:01 | 41.37055 | -115.03223 | 51° | 16km/h | 23786m | 5.2m/s | -46.4°C | 0% | 0hPa | 0V | 00:00:00 | 00:00:00 | 00:00:00 | |
| KE7DJD | 2026-09-04 00:09:42 | 41.37023 | -115.03128 | 348° | 7km/h | 23681m | 5.7m/s | -46.2°C | 0% | 0hPa | 0V | 00:00:00 | 00:00:00 | 00:00:00 | |
| KE7DJD | 2026-09-04 00:09:20 | 41.36970 | -115.03052 | 340° | 15km/h | 23567m | 5.3m/s | -46.6°C | 0% | 0hPa | 0V | 00:00:00 | 00:00:00 | 00:00:00 | |
| KE7DJD | 2026-09-04 00:09:00 | 41.36968 | -115.02965 | 299° | 18km/h | 23459m | 4.3m/s | -47.4°C | 0% | 0hPa | 0V | 00:00:00 | 00:00:00 | 00:00:00 | |
| KE7DJD | 2026-09-04 00:08:19 | 41.36983 | -115.02908 | 134° | 5km/h | 23237m | 5.6m/s | -47.3°C | 0% | 0hPa | 0V | 00:00:00 | 00:00:00 | 00:00:00 | |
| KE7DJD | 2026-09-04 00:07:59 | 41.37019 | -115.02880 | 210° | 13km/h | 23124m | 4.6m/s | -47.0°C | 0% | 0hPa | 0V | 00:00:00 | 00:00:00 | 00:00:00 | |
| KE7DJD | 2026-09-04 00:07:38 | 41.37062 | -115.02827 | 211° | 2km/h | 23013m | 4.7m/s | -46.8°C | 0% | 0hPa | 0V | 00:00:00 | 00:00:00 | 00:00:00 | |
| KE7DJD | 2026-09-04 00:07:18 | 41.37098 | -115.02761 | 233° | 11km/h | 22894m | 5.1m/s | -47.0°C | 0% | 0hPa | 0V | 00:00:00 | 00:00:00 | 00:00:00 | |
| KE7DJD | 2026-09-04 00:06:58 | 41.37112 | -115.02744 | 344° | 11km/h | 22779m | 5.2m/s | -47.6°C | 0% | 0hPa | 0V | 00:00:00 | 00:00:00 | 00:00:00 | |
| KE7DJD | 2026-09-04 00:06:37 | 41.37069 | -115.02720 | 335° | 13km/h | 22662m | 6.3m/s | -48.4°C | 0% | 0hPa | 0V | 00:00:00 | 00:00:00 | 00:00:00 | |
| KE7DJD | 2026-09-04 00:06:16 | 41.37019 | -115.02674 | 329° | 20km/h | 22547m | 5.6m/s | -48.0°C | 0% | 0hPa | 0V | 00:00:00 | 00:00:00 | 00:00:00 | |
| KE7DJD | 2026-09-04 00:05:56 | 41.36979 | -115.02651 | 333° | 9km/h | 22441m | 6.0m/s | -48.1°C | 0% | 0hPa | 0V | 00:00:00 | 00:00:00 | 00:00:00 | |
| KE7DJD | 2026-09-04 00:05:35 | 41.36957 | -115.02586 | 303° | 18km/h | 22329m | 5.8m/s | -48.1°C | 0% | 0hPa | 0V | 00:00:00 | 00:00:00 | 00:00:00 |